This is the latest recevied weather packets stored in our database for station/object EB2GLU-13. If no packets are shown the sender has not sent any weather packets the latest 1 day(s).
| Time | Temp. | Humidity | Pressure | Rain* | Wind** | Luminosity | Snow |
|---|---|---|---|---|---|---|---|
| 1778013793 | 11.11° C | 92% | 1014.4 hPa | 0 mm | 0 m/s | - | - |
| 1778013042 | 11.67° C | 91% | 1014.1 hPa | 0 mm | 0 m/s | - | - |
| 1778012293 | 11.67° C | 91% | 1014 hPa | 0 mm | 0 m/s | - | - |
| 1778011542 | 11.67° C | 90% | 1013.7 hPa | 0 mm | 0 m/s | - | - |
| 1778010792 | 12.22° C | 91% | 1013.7 hPa | 0 mm | 0 m/s | - | - |
| 1778010042 | 12.22° C | 90% | 1013.5 hPa | 0 mm | 0 m/s | - | - |
| 1778009292 | 12.22° C | 89% | 1013.4 hPa | 0 mm | 0 m/s | - | - |
| 1778008542 | 12.22° C | 87% | 1013.4 hPa | 0 mm | 0 m/s | - | - |
| 1778007792 | 12.78° C | 85% | 1013.1 hPa | 0 mm | 0 m/s | - | - |
| 1778007042 | 12.78° C | 86% | 1013.3 hPa | 0 mm | 0 m/s | - | - |
| 1778006292 | 13.33° C | 85% | 1013.1 hPa | 0 mm | 0 m/s | - | - |
| 1778005542 | 13.89° C | 82% | 1013.3 hPa | 0 mm | 0 m/s | - | - |
| 1778004792 | 14.44° C | 82% | 1013.2 hPa | 0 mm | 0 m/s | - | - |
| 1778004042 | 14.44° C | 83% | 1013.1 hPa | 0 mm | 0 m/s | - | - |
| 1778003292 | 15° C | 81% | 1013.1 hPa | 0 mm | 0 m/s | - | - |
| 1778002542 | 14.44° C | 83% | 1013.1 hPa | 0 mm | 0 m/s | - | - |
| 1778001792 | 15.56° C | 79% | 1013 hPa | 0 mm | 0 m/s | - | - |
| 1778001042 | 15.56° C | 74% | 1013.3 hPa | 0 mm | 0 m/s | - | - |
| 1778000292 | 15.56° C | 77% | 1013.3 hPa | 0 mm | 0 m/s | - | - |
| 1777999542 | 16.11° C | 77% | 1013.3 hPa | 0 mm | 0 m/s | - | - |
| 1777998792 | 16.11° C | 80% | 1013.2 hPa | 0 mm | 0 m/s | - | - |
| 1777998042 | 15.56° C | 79% | 1013.2 hPa | 0 mm | 0 m/s | - | - |
| 1777997292 | 15° C | 79% | 1013.1 hPa | 0 mm | 0 m/s | - | - |
| 1777996542 | 14.44° C | 81% | 1013.2 hPa | 0 mm | 0 m/s | - | - |
| 1777995792 | 15.56° C | 74% | 1013.3 hPa | 0 mm | 0 m/s | - | - |
* Rain latest hour (hover to see other rain measurements)
** Current wind speed in m/s (hover to see current wind gust speed)